sensor_id;sensor_type;location;lat;lon;timestamp;P1;durP1;ratioP1;P2;durP2;ratioP2
55076;SDS011;40971;44.702;11.030;2022-10-20T00:00:23;59.25;;;25.50;;
55076;SDS011;40971;44.702;11.030;2022-10-20T00:02:49;60.42;;;27.23;;
55076;SDS011;40971;44.702;11.030;2022-10-20T00:05:14;59.38;;;26.33;;
55076;SDS011;40971;44.702;11.030;2022-10-20T00:07:40;56.60;;;25.77;;
55076;SDS011;40971;44.702;11.030;2022-10-20T00:10:06;74.57;;;31.17;;
55076;SDS011;40971;44.702;11.030;2022-10-20T00:12:32;62.92;;;29.38;;
55076;SDS011;40971;44.702;11.030;2022-10-20T00:14:58;62.58;;;28.38;;
55076;SDS011;40971;44.702;11.030;2022-10-20T00:17:23;52.65;;;24.27;;
55076;SDS011;40971;44.702;11.030;2022-10-20T00:19:49;53.78;;;25.50;;
55076;SDS011;40971;44.702;11.030;2022-10-20T00:22:14;58.45;;;24.20;;
55076;SDS011;40971;44.702;11.030;2022-10-20T00:24:40;64.15;;;27.50;;
55076;SDS011;40971;44.702;11.030;2022-10-20T00:27:06;53.42;;;23.65;;
55076;SDS011;40971;44.702;11.030;2022-10-20T00:29:31;49.78;;;22.75;;
55076;SDS011;40971;44.702;11.030;2022-10-20T00:31:57;52.53;;;22.23;;
55076;SDS011;40971;44.702;11.030;2022-10-20T00:34:22;46.28;;;21.70;;
55076;SDS011;40971;44.702;11.030;2022-10-20T00:36:48;50.17;;;20.73;;
55076;SDS011;40971;44.702;11.030;2022-10-20T00:39:13;55.20;;;22.30;;
55076;SDS011;40971;44.702;11.030;2022-10-20T00:41:39;57.42;;;24.58;;
55076;SDS011;40971;44.702;11.030;2022-10-20T00:47:53;53.28;;;23.20;;
55076;SDS011;40971;44.702;11.030;2022-10-20T00:49:55;53.08;;;21.20;;
55076;SDS011;40971;44.702;11.030;2022-10-20T00:52:29;59.55;;;24.65;;
55076;SDS011;40971;44.702;11.030;2022-10-20T00:54:55;58.58;;;26.77;;
55076;SDS011;40971;44.702;11.030;2022-10-20T00:57:20;68.88;;;30.45;;
55076;SDS011;40971;44.702;11.030;2022-10-20T00:59:46;65.63;;;28.90;;
55076;SDS011;40971;44.702;11.030;2022-10-20T01:02:11;50.15;;;23.35;;
55076;SDS011;40971;44.702;11.030;2022-10-20T01:04:37;49.45;;;22.27;;
55076;SDS011;40971;44.702;11.030;2022-10-20T01:07:03;63.60;;;27.40;;
55076;SDS011;40971;44.702;11.030;2022-10-20T01:09:29;67.35;;;27.90;;
55076;SDS011;40971;44.702;11.030;2022-10-20T01:31:37;58.40;;;26.40;;
55076;SDS011;40971;44.702;11.030;2022-10-20T01:34:20;60.95;;;28.85;;
55076;SDS011;40971;44.702;11.030;2022-10-20T01:42:02;74.55;;;29.38;;
55076;SDS011;40971;44.702;11.030;2022-10-20T01:44:32;62.88;;;28.70;;
55076;SDS011;40971;44.702;11.030;2022-10-20T01:47:00;81.13;;;33.38;;
55076;SDS011;40971;44.702;11.030;2022-10-20T01:49:27;95.13;;;35.75;;
55076;SDS011;40971;44.702;11.030;2022-10-20T01:51:52;91.93;;;37.20;;
55076;SDS011;40971;44.702;11.030;2022-10-20T01:54:26;84.55;;;37.28;;
55076;SDS011;40971;44.702;11.030;2022-10-20T02:00:00;142.83;;;56.27;;
55076;SDS011;40971;44.702;11.030;2022-10-20T02:07:42;140.30;;;43.92;;
55076;SDS011;40971;44.702;11.030;2022-10-20T02:10:08;104.93;;;38.10;;
55076;SDS011;40971;44.702;11.030;2022-10-20T02:12:39;98.35;;;38.20;;
55076;SDS011;40971;44.702;11.030;2022-10-20T02:15:08;126.32;;;42.90;;
55076;SDS011;40971;44.702;11.030;2022-10-20T02:17:38;112.47;;;40.38;;
55076;SDS011;40971;44.702;11.030;2022-10-20T02:20:05;116.57;;;39.67;;
55076;SDS011;40971;44.702;11.030;2022-10-20T02:25:20;88.05;;;34.70;;
55076;SDS011;40971;44.702;11.030;2022-10-20T02:27:47;86.40;;;35.65;;
55076;SDS011;40971;44.702;11.030;2022-10-20T02:30:14;85.25;;;32.08;;
55076;SDS011;40971;44.702;11.030;2022-10-20T02:32:42;97.28;;;36.83;;
55076;SDS011;40971;44.702;11.030;2022-10-20T02:35:13;77.32;;;34.55;;
55076;SDS011;40971;44.702;11.030;2022-10-20T02:37:42;75.90;;;32.95;;
55076;SDS011;40971;44.702;11.030;2022-10-20T02:40:07;76.22;;;29.73;;
55076;SDS011;40971;44.702;11.030;2022-10-20T02:42:34;113.57;;;41.42;;
55076;SDS011;40971;44.702;11.030;2022-10-20T02:44:59;109.00;;;36.63;;
55076;SDS011;40971;44.702;11.030;2022-10-20T02:47:36;134.80;;;46.38;;
55076;SDS011;40971;44.702;11.030;2022-10-20T02:50:01;92.82;;;37.22;;
55076;SDS011;40971;44.702;11.030;2022-10-20T02:52:27;90.65;;;32.00;;
55076;SDS011;40971;44.702;11.030;2022-10-20T02:54:53;286.83;;;34.80;;
55076;SDS011;40971;44.702;11.030;2022-10-20T02:57:18;88.20;;;26.65;;
55076;SDS011;40971;44.702;11.030;2022-10-20T02:59:44;92.72;;;22.35;;
55076;SDS011;40971;44.702;11.030;2022-10-20T03:02:09;139.68;;;37.33;;
55076;SDS011;40971;44.702;11.030;2022-10-20T03:04:43;446.73;;;38.67;;
55076;SDS011;40971;44.702;11.030;2022-10-20T03:07:08;126.60;;;46.25;;
55076;SDS011;40971;44.702;11.030;2022-10-20T03:09:34;125.00;;;31.65;;
55076;SDS011;40971;44.702;11.030;2022-10-20T03:12:00;147.25;;;33.47;;
55076;SDS011;40971;44.702;11.030;2022-10-20T03:14:26;315.05;;;38.67;;
55076;SDS011;40971;44.702;11.030;2022-10-20T03:16:55;141.73;;;46.85;;
55076;SDS011;40971;44.702;11.030;2022-10-20T03:19:26;259.23;;;85.03;;
55076;SDS011;40971;44.702;11.030;2022-10-20T03:21:51;300.27;;;91.47;;
55076;SDS011;40971;44.702;11.030;2022-10-20T03:24:17;265.05;;;84.18;;
55076;SDS011;40971;44.702;11.030;2022-10-20T03:26:42;267.77;;;82.85;;
55076;SDS011;40971;44.702;11.030;2022-10-20T03:29:08;213.07;;;70.90;;
55076;SDS011;40971;44.702;11.030;2022-10-20T03:31:33;176.55;;;55.10;;
55076;SDS011;40971;44.702;11.030;2022-10-20T03:33:59;163.88;;;45.78;;
55076;SDS011;40971;44.702;11.030;2022-10-20T03:36:24;130.00;;;42.53;;
55076;SDS011;40971;44.702;11.030;2022-10-20T03:38:49;212.75;;;42.25;;
55076;SDS011;40971;44.702;11.030;2022-10-20T03:41:15;222.40;;;39.53;;
55076;SDS011;40971;44.702;11.030;2022-10-20T03:43:40;102.03;;;33.75;;
55076;SDS011;40971;44.702;11.030;2022-10-20T03:46:07;250.40;;;34.20;;
55076;SDS011;40971;44.702;11.030;2022-10-20T03:48:35;191.57;;;31.20;;
55076;SDS011;40971;44.702;11.030;2022-10-20T03:51:02;90.50;;;32.30;;
55076;SDS011;40971;44.702;11.030;2022-10-20T03:53:29;67.97;;;30.02;;
55076;SDS011;40971;44.702;11.030;2022-10-20T03:55:54;114.47;;;27.30;;
55076;SDS011;40971;44.702;11.030;2022-10-20T03:58:20;54.13;;;28.95;;
55076;SDS011;40971;44.702;11.030;2022-10-20T04:00:45;56.50;;;26.70;;
55076;SDS011;40971;44.702;11.030;2022-10-20T04:03:11;81.03;;;31.27;;
55076;SDS011;40971;44.702;11.030;2022-10-20T04:05:37;107.57;;;40.30;;
55076;SDS011;40971;44.702;11.030;2022-10-20T04:08:03;98.00;;;30.10;;
55076;SDS011;40971;44.702;11.030;2022-10-20T04:10:29;90.32;;;37.53;;
55076;SDS011;40971;44.702;11.030;2022-10-20T04:12:58;165.93;;;59.25;;
55076;SDS011;40971;44.702;11.030;2022-10-20T04:15:24;74.68;;;34.92;;
55076;SDS011;40971;44.702;11.030;2022-10-20T04:17:50;118.18;;;44.53;;
55076;SDS011;40971;44.702;11.030;2022-10-20T04:20:15;186.45;;;67.45;;
55076;SDS011;40971;44.702;11.030;2022-10-20T04:22:50;230.85;;;72.78;;
55076;SDS011;40971;44.702;11.030;2022-10-20T04:25:15;108.20;;;41.97;;
55076;SDS011;40971;44.702;11.030;2022-10-20T04:27:41;95.03;;;38.20;;
55076;SDS011;40971;44.702;11.030;2022-10-20T04:30:07;89.50;;;35.90;;
55076;SDS011;40971;44.702;11.030;2022-10-20T04:32:33;62.30;;;30.70;;
55076;SDS011;40971;44.702;11.030;2022-10-20T04:34:59;65.35;;;31.63;;
55076;SDS011;40971;44.702;11.030;2022-10-20T04:37:24;100.40;;;35.53;;
55076;SDS011;40971;44.702;11.030;2022-10-20T04:39:49;105.28;;;35.50;;
55076;SDS011;40971;44.702;11.030;2022-10-20T04:42:16;138.23;;;33.17;;
55076;SDS011;40971;44.702;11.030;2022-10-20T04:44:42;63.20;;;27.35;;
55076;SDS011;40971;44.702;11.030;2022-10-20T04:47:07;123.38;;;45.65;;
55076;SDS011;40971;44.702;11.030;2022-10-20T04:49:33;154.70;;;51.63;;
55076;SDS011;40971;44.702;11.030;2022-10-20T04:51:58;169.63;;;53.10;;
55076;SDS011;40971;44.702;11.030;2022-10-20T04:54:24;151.45;;;57.10;;
55076;SDS011;40971;44.702;11.030;2022-10-20T04:57:02;146.25;;;50.47;;
55076;SDS011;40971;44.702;11.030;2022-10-20T04:59:30;214.10;;;58.05;;
55076;SDS011;40971;44.702;11.030;2022-10-20T05:01:55;136.13;;;44.13;;
55076;SDS011;40971;44.702;11.030;2022-10-20T05:04:21;109.18;;;40.50;;
55076;SDS011;40971;44.702;11.030;2022-10-20T05:06:47;158.00;;;53.65;;
55076;SDS011;40971;44.702;11.030;2022-10-20T05:09:13;143.15;;;45.42;;
55076;SDS011;40971;44.702;11.030;2022-10-20T05:11:39;89.93;;;37.75;;
55076;SDS011;40971;44.702;11.030;2022-10-20T05:14:05;113.60;;;38.80;;
55076;SDS011;40971;44.702;11.030;2022-10-20T05:16:31;98.72;;;36.15;;
55076;SDS011;40971;44.702;11.030;2022-10-20T05:18:57;85.35;;;32.78;;
55076;SDS011;40971;44.702;11.030;2022-10-20T05:21:24;116.95;;;31.45;;
55076;SDS011;40971;44.702;11.030;2022-10-20T05:23:54;69.10;;;28.80;;
55076;SDS011;40971;44.702;11.030;2022-10-20T05:26:25;101.85;;;30.58;;
55076;SDS011;40971;44.702;11.030;2022-10-20T05:28:52;150.63;;;34.47;;
55076;SDS011;40971;44.702;11.030;2022-10-20T05:31:18;176.68;;;39.80;;
55076;SDS011;40971;44.702;11.030;2022-10-20T05:33:52;151.75;;;38.28;;
55076;SDS011;40971;44.702;11.030;2022-10-20T05:36:20;171.63;;;40.45;;
55076;SDS011;40971;44.702;11.030;2022-10-20T05:38:47;218.88;;;41.05;;
55076;SDS011;40971;44.702;11.030;2022-10-20T05:41:15;110.78;;;34.50;;
55076;SDS011;40971;44.702;11.030;2022-10-20T05:43:46;125.03;;;37.00;;
55076;SDS011;40971;44.702;11.030;2022-10-20T05:46:14;112.80;;;33.63;;
55076;SDS011;40971;44.702;11.030;2022-10-20T05:48:39;133.10;;;38.72;;
55076;SDS011;40971;44.702;11.030;2022-10-20T05:51:11;158.65;;;37.25;;
55076;SDS011;40971;44.702;11.030;2022-10-20T05:53:40;92.45;;;32.72;;
55076;SDS011;40971;44.702;11.030;2022-10-20T05:56:07;75.32;;;32.38;;
55076;SDS011;40971;44.702;11.030;2022-10-20T05:58:34;75.82;;;31.05;;
55076;SDS011;40971;44.702;11.030;2022-10-20T06:01:12;83.82;;;32.08;;
55076;SDS011;40971;44.702;11.030;2022-10-20T06:03:53;79.18;;;31.98;;
55076;SDS011;40971;44.702;11.030;2022-10-20T06:06:23;142.82;;;36.63;;
55076;SDS011;40971;44.702;11.030;2022-10-20T06:08:50;144.63;;;35.10;;
55076;SDS011;40971;44.702;11.030;2022-10-20T06:11:17;94.60;;;34.28;;
55076;SDS011;40971;44.702;11.030;2022-10-20T06:13:43;103.45;;;33.75;;
55076;SDS011;40971;44.702;11.030;2022-10-20T06:18:39;117.32;;;38.72;;
55076;SDS011;40971;44.702;11.030;2022-10-20T06:21:50;92.22;;;34.72;;
55076;SDS011;40971;44.702;11.030;2022-10-20T06:23:57;96.22;;;35.20;;
55076;SDS011;40971;44.702;11.030;2022-10-20T06:26:26;104.25;;;37.15;;
55076;SDS011;40971;44.702;11.030;2022-10-20T06:29:00;90.78;;;36.13;;
55076;SDS011;40971;44.702;11.030;2022-10-20T06:31:27;78.20;;;35.20;;
55076;SDS011;40971;44.702;11.030;2022-10-20T06:33:58;76.68;;;34.40;;
55076;SDS011;40971;44.702;11.030;2022-10-20T06:36:24;75.68;;;33.63;;
55076;SDS011;40971;44.702;11.030;2022-10-20T06:38:55;70.18;;;35.28;;
55076;SDS011;40971;44.702;11.030;2022-10-20T06:41:22;84.97;;;37.35;;
55076;SDS011;40971;44.702;11.030;2022-10-20T06:43:48;106.15;;;41.85;;
55076;SDS011;40971;44.702;11.030;2022-10-20T06:46:16;91.78;;;41.03;;
55076;SDS011;40971;44.702;11.030;2022-10-20T06:48:42;70.40;;;32.92;;
55076;SDS011;40971;44.702;11.030;2022-10-20T06:53:58;66.93;;;32.60;;
55076;SDS011;40971;44.702;11.030;2022-10-20T06:56:25;74.70;;;32.40;;
55076;SDS011;40971;44.702;11.030;2022-10-20T06:58:53;67.18;;;33.22;;
55076;SDS011;40971;44.702;11.030;2022-10-20T07:01:22;63.17;;;32.30;;
55076;SDS011;40971;44.702;11.030;2022-10-20T07:03:49;71.43;;;34.30;;
55076;SDS011;40971;44.702;11.030;2022-10-20T07:06:19;70.82;;;32.55;;
55076;SDS011;40971;44.702;11.030;2022-10-20T07:08:48;68.13;;;34.70;;
55076;SDS011;40971;44.702;11.030;2022-10-20T07:11:18;63.58;;;32.90;;
55076;SDS011;40971;44.702;11.030;2022-10-20T07:13:45;68.80;;;33.90;;
55076;SDS011;40971;44.702;11.030;2022-10-20T07:16:14;75.03;;;34.97;;
55076;SDS011;40971;44.702;11.030;2022-10-20T07:18:41;64.53;;;31.85;;
55076;SDS011;40971;44.702;11.030;2022-10-20T07:21:08;69.78;;;32.05;;
55076;SDS011;40971;44.702;11.030;2022-10-20T07:23:35;57.72;;;31.23;;
55076;SDS011;40971;44.702;11.030;2022-10-20T07:26:03;54.17;;;29.52;;
55076;SDS011;40971;44.702;11.030;2022-10-20T07:28:30;52.90;;;29.38;;
55076;SDS011;40971;44.702;11.030;2022-10-20T07:34:01;58.80;;;28.58;;
55076;SDS011;40971;44.702;11.030;2022-10-20T07:36:28;49.97;;;28.63;;
55076;SDS011;40971;44.702;11.030;2022-10-20T07:38:55;49.00;;;27.52;;
55076;SDS011;40971;44.702;11.030;2022-10-20T07:41:23;46.28;;;26.48;;
55076;SDS011;40971;44.702;11.030;2022-10-20T07:43:50;59.42;;;27.23;;
55076;SDS011;40971;44.702;11.030;2022-10-20T07:46:16;49.80;;;26.63;;
55076;SDS011;40971;44.702;11.030;2022-10-20T07:48:42;61.67;;;29.63;;
55076;SDS011;40971;44.702;11.030;2022-10-20T07:53:58;51.92;;;27.38;;
55076;SDS011;40971;44.702;11.030;2022-10-20T07:56:27;55.65;;;27.90;;
55076;SDS011;40971;44.702;11.030;2022-10-20T07:58:54;55.15;;;27.73;;
55076;SDS011;40971;44.702;11.030;2022-10-20T08:01:19;60.28;;;29.98;;
55076;SDS011;40971;44.702;11.030;2022-10-20T08:03:45;56.90;;;28.33;;
55076;SDS011;40971;44.702;11.030;2022-10-20T08:06:10;51.00;;;28.63;;
55076;SDS011;40971;44.702;11.030;2022-10-20T08:08:36;53.80;;;29.08;;
55076;SDS011;40971;44.702;11.030;2022-10-20T08:11:01;67.35;;;32.90;;
55076;SDS011;40971;44.702;11.030;2022-10-20T08:13:27;57.95;;;30.40;;
55076;SDS011;40971;44.702;11.030;2022-10-20T08:15:53;58.88;;;29.88;;
55076;SDS011;40971;44.702;11.030;2022-10-20T08:18:19;71.40;;;32.70;;
55076;SDS011;40971;44.702;11.030;2022-10-20T08:20:45;67.75;;;32.25;;
55076;SDS011;40971;44.702;11.030;2022-10-20T08:23:11;69.07;;;33.95;;
55076;SDS011;40971;44.702;11.030;2022-10-20T08:25:37;70.07;;;33.97;;
55076;SDS011;40971;44.702;11.030;2022-10-20T08:28:03;68.60;;;34.08;;
55076;SDS011;40971;44.702;11.030;2022-10-20T08:30:30;78.57;;;35.42;;
55076;SDS011;40971;44.702;11.030;2022-10-20T08:32:55;78.70;;;32.95;;
55076;SDS011;40971;44.702;11.030;2022-10-20T08:35:21;73.53;;;34.30;;
55076;SDS011;40971;44.702;11.030;2022-10-20T08:37:47;66.95;;;34.90;;
55076;SDS011;40971;44.702;11.030;2022-10-20T08:40:18;81.93;;;39.28;;
55076;SDS011;40971;44.702;11.030;2022-10-20T08:45:16;75.95;;;38.50;;
55076;SDS011;40971;44.702;11.030;2022-10-20T08:47:48;90.95;;;42.15;;
55076;SDS011;40971;44.702;11.030;2022-10-20T08:50:16;90.10;;;41.15;;
55076;SDS011;40971;44.702;11.030;2022-10-20T08:52:43;83.50;;;39.45;;
55076;SDS011;40971;44.702;11.030;2022-10-20T08:55:21;83.03;;;40.08;;
55076;SDS011;40971;44.702;11.030;2022-10-20T08:57:51;81.30;;;40.40;;
55076;SDS011;40971;44.702;11.030;2022-10-20T09:00:25;81.93;;;39.92;;
55076;SDS011;40971;44.702;11.030;2022-10-20T09:02:51;75.00;;;39.72;;
55076;SDS011;40971;44.702;11.030;2022-10-20T09:05:20;90.50;;;41.67;;
55076;SDS011;40971;44.702;11.030;2022-10-20T09:07:51;82.30;;;39.33;;
55076;SDS011;40971;44.702;11.030;2022-10-20T09:10:37;87.65;;;40.67;;
55076;SDS011;40971;44.702;11.030;2022-10-20T09:13:13;86.38;;;42.00;;
55076;SDS011;40971;44.702;11.030;2022-10-20T09:15:41;89.32;;;42.17;;
55076;SDS011;40971;44.702;11.030;2022-10-20T09:18:08;87.03;;;41.45;;
55076;SDS011;40971;44.702;11.030;2022-10-20T09:23:24;96.13;;;43.63;;
55076;SDS011;40971;44.702;11.030;2022-10-20T09:25:56;101.35;;;45.35;;
55076;SDS011;40971;44.702;11.030;2022-10-20T09:28:22;89.93;;;42.22;;
55076;SDS011;40971;44.702;11.030;2022-10-20T09:30:50;102.60;;;44.63;;
55076;SDS011;40971;44.702;11.030;2022-10-20T09:33:20;97.55;;;47.65;;
55076;SDS011;40971;44.702;11.030;2022-10-20T09:35:52;102.13;;;44.60;;
55076;SDS011;40971;44.702;11.030;2022-10-20T09:38:26;98.65;;;45.75;;
55076;SDS011;40971;44.702;11.030;2022-10-20T09:40:56;109.53;;;48.95;;
55076;SDS011;40971;44.702;11.030;2022-10-20T09:43:34;101.70;;;44.38;;
55076;SDS011;40971;44.702;11.030;2022-10-20T09:46:12;100.13;;;45.63;;
55076;SDS011;40971;44.702;11.030;2022-10-20T09:48:45;91.45;;;44.20;;
55076;SDS011;40971;44.702;11.030;2022-10-20T09:51:33;96.35;;;45.30;;
55076;SDS011;40971;44.702;11.030;2022-10-20T09:56:27;96.93;;;46.23;;
55076;SDS011;40971;44.702;11.030;2022-10-20T09:58:54;103.38;;;45.70;;
55076;SDS011;40971;44.702;11.030;2022-10-20T10:01:20;95.35;;;43.88;;
55076;SDS011;40971;44.702;11.030;2022-10-20T10:03:47;91.47;;;42.80;;
55076;SDS011;40971;44.702;11.030;2022-10-20T10:08:55;103.28;;;46.85;;
55076;SDS011;40971;44.702;11.030;2022-10-20T10:11:23;101.78;;;48.05;;
55076;SDS011;40971;44.702;11.030;2022-10-20T10:14:00;96.47;;;45.30;;
55076;SDS011;40971;44.702;11.030;2022-10-20T10:16:26;104.75;;;46.78;;
55076;SDS011;40971;44.702;11.030;2022-10-20T10:21:26;91.20;;;45.38;;
55076;SDS011;40971;44.702;11.030;2022-10-20T10:29:02;88.95;;;42.20;;
55076;SDS011;40971;44.702;11.030;2022-10-20T10:31:28;89.82;;;42.85;;
55076;SDS011;40971;44.702;11.030;2022-10-20T10:33:55;90.30;;;42.03;;
55076;SDS011;40971;44.702;11.030;2022-10-20T10:36:43;87.95;;;42.80;;
55076;SDS011;40971;44.702;11.030;2022-10-20T10:39:10;88.22;;;42.63;;
55076;SDS011;40971;44.702;11.030;2022-10-20T10:41:47;90.57;;;43.55;;
55076;SDS011;40971;44.702;11.030;2022-10-20T10:50:14;95.32;;;42.08;;
55076;SDS011;40971;44.702;11.030;2022-10-20T10:52:50;88.00;;;41.65;;
55076;SDS011;40971;44.702;11.030;2022-10-20T10:55:37;92.78;;;41.85;;
55076;SDS011;40971;44.702;11.030;2022-10-20T10:58:40;87.75;;;44.25;;
55076;SDS011;40971;44.702;11.030;2022-10-20T11:26:49;85.43;;;41.35;;
55076;SDS011;40971;44.702;11.030;2022-10-20T11:29:37;79.13;;;38.70;;
55076;SDS011;40971;44.702;11.030;2022-10-20T11:37:21;88.35;;;40.92;;
55076;SDS011;40971;44.702;11.030;2022-10-20T11:39:57;84.28;;;39.58;;
55076;SDS011;40971;44.702;11.030;2022-10-20T11:48:13;76.65;;;37.80;;
55076;SDS011;40971;44.702;11.030;2022-10-20T12:09:24;74.55;;;36.38;;
55076;SDS011;40971;44.702;11.030;2022-10-20T12:12:14;74.50;;;36.88;;
55076;SDS011;40971;44.702;11.030;2022-10-20T12:14:42;75.60;;;35.70;;
55076;SDS011;40971;44.702;11.030;2022-10-20T12:22:46;74.03;;;35.83;;
55076;SDS011;40971;44.702;11.030;2022-10-20T12:30:43;70.57;;;34.10;;
55076;SDS011;40971;44.702;11.030;2022-10-20T12:33:37;69.03;;;30.67;;
55076;SDS011;40971;44.702;11.030;2022-10-20T12:38:41;52.92;;;23.80;;
55076;SDS011;40971;44.702;11.030;2022-10-20T12:41:11;44.22;;;23.23;;
55076;SDS011;40971;44.702;11.030;2022-10-20T12:43:53;44.58;;;20.98;;
55076;SDS011;40971;44.702;11.030;2022-10-20T12:46:28;49.05;;;25.55;;
55076;SDS011;40971;44.702;11.030;2022-10-20T12:49:05;52.40;;;24.45;;
55076;SDS011;40971;44.702;11.030;2022-10-20T12:51:38;59.75;;;24.58;;
55076;SDS011;40971;44.702;11.030;2022-10-20T12:57:03;60.30;;;28.75;;
55076;SDS011;40971;44.702;11.030;2022-10-20T12:59:50;57.47;;;27.70;;
55076;SDS011;40971;44.702;11.030;2022-10-20T13:04:55;49.63;;;25.73;;
55076;SDS011;40971;44.702;11.030;2022-10-20T13:15:36;45.72;;;24.75;;
55076;SDS011;40971;44.702;11.030;2022-10-20T13:23:35;43.05;;;22.67;;
55076;SDS011;40971;44.702;11.030;2022-10-20T13:28:46;43.55;;;22.27;;
55076;SDS011;40971;44.702;11.030;2022-10-20T13:31:15;47.33;;;22.63;;
55076;SDS011;40971;44.702;11.030;2022-10-20T13:33:51;45.15;;;23.40;;
55076;SDS011;40971;44.702;11.030;2022-10-20T13:36:51;43.45;;;21.63;;
55076;SDS011;40971;44.702;11.030;2022-10-20T13:39:50;44.63;;;21.38;;
55076;SDS011;40971;44.702;11.030;2022-10-20T13:50:15;48.35;;;20.85;;
55076;SDS011;40971;44.702;11.030;2022-10-20T13:52:46;41.88;;;21.58;;
55076;SDS011;40971;44.702;11.030;2022-10-20T13:55:21;46.20;;;21.65;;
55076;SDS011;40971;44.702;11.030;2022-10-20T13:57:50;43.58;;;21.25;;
55076;SDS011;40971;44.702;11.030;2022-10-20T14:00:29;48.25;;;21.33;;
55076;SDS011;40971;44.702;11.030;2022-10-20T14:05:22;39.03;;;19.25;;
55076;SDS011;40971;44.702;11.030;2022-10-20T14:07:49;34.10;;;19.25;;
55076;SDS011;40971;44.702;11.030;2022-10-20T14:10:19;35.83;;;18.38;;
55076;SDS011;40971;44.702;11.030;2022-10-20T14:12:45;41.65;;;18.48;;
55076;SDS011;40971;44.702;11.030;2022-10-20T14:15:11;46.10;;;20.38;;
55076;SDS011;40971;44.702;11.030;2022-10-20T14:17:41;42.83;;;19.38;;
55076;SDS011;40971;44.702;11.030;2022-10-20T14:20:27;35.88;;;18.75;;
55076;SDS011;40971;44.702;11.030;2022-10-20T14:22:53;40.25;;;18.98;;
55076;SDS011;40971;44.702;11.030;2022-10-20T14:25:21;36.28;;;18.33;;
55076;SDS011;40971;44.702;11.030;2022-10-20T14:27:47;35.70;;;18.38;;
55076;SDS011;40971;44.702;11.030;2022-10-20T14:30:16;42.92;;;18.73;;
55076;SDS011;40971;44.702;11.030;2022-10-20T14:32:43;34.17;;;17.27;;
55076;SDS011;40971;44.702;11.030;2022-10-20T14:38:12;36.30;;;18.52;;
55076;SDS011;40971;44.702;11.030;2022-10-20T14:40:54;37.45;;;17.30;;
55076;SDS011;40971;44.702;11.030;2022-10-20T14:43:37;40.63;;;18.13;;
55076;SDS011;40971;44.702;11.030;2022-10-20T14:46:06;34.73;;;18.03;;
55076;SDS011;40971;44.702;11.030;2022-10-20T14:48:46;37.60;;;20.02;;
55076;SDS011;40971;44.702;11.030;2022-10-20T14:51:26;39.83;;;20.70;;
55076;SDS011;40971;44.702;11.030;2022-10-20T14:57:01;37.15;;;19.17;;
55076;SDS011;40971;44.702;11.030;2022-10-20T14:59:49;42.65;;;19.60;;
55076;SDS011;40971;44.702;11.030;2022-10-20T15:07:50;43.88;;;21.50;;
55076;SDS011;40971;44.702;11.030;2022-10-20T15:10:18;42.83;;;22.15;;
55076;SDS011;40971;44.702;11.030;2022-10-20T15:12:47;52.03;;;23.80;;
55076;SDS011;40971;44.702;11.030;2022-10-20T15:15:21;41.10;;;22.40;;
55076;SDS011;40971;44.702;11.030;2022-10-20T15:22:55;67.25;;;26.05;;
55076;SDS011;40971;44.702;11.030;2022-10-20T15:25:21;60.85;;;25.77;;
55076;SDS011;40971;44.702;11.030;2022-10-20T15:27:51;48.80;;;23.42;;
55076;SDS011;40971;44.702;11.030;2022-10-20T15:30:18;48.30;;;26.23;;
55076;SDS011;40971;44.702;11.030;2022-10-20T15:32:45;55.63;;;27.85;;
55076;SDS011;40971;44.702;11.030;2022-10-20T15:35:11;45.17;;;25.05;;
55076;SDS011;40971;44.702;11.030;2022-10-20T15:37:37;49.10;;;26.25;;
55076;SDS011;40971;44.702;11.030;2022-10-20T15:40:02;103.57;;;29.85;;
55076;SDS011;40971;44.702;11.030;2022-10-20T15:42:29;60.92;;;27.38;;
55076;SDS011;40971;44.702;11.030;2022-10-20T15:44:54;52.33;;;27.00;;
55076;SDS011;40971;44.702;11.030;2022-10-20T15:47:19;55.53;;;27.33;;
55076;SDS011;40971;44.702;11.030;2022-10-20T15:49:45;70.57;;;29.02;;
55076;SDS011;40971;44.702;11.030;2022-10-20T15:52:10;52.20;;;27.20;;
55076;SDS011;40971;44.702;11.030;2022-10-20T15:54:36;56.15;;;28.65;;
55076;SDS011;40971;44.702;11.030;2022-10-20T15:57:01;57.70;;;27.77;;
55076;SDS011;40971;44.702;11.030;2022-10-20T15:59:27;73.97;;;31.33;;
55076;SDS011;40971;44.702;11.030;2022-10-20T16:01:52;58.65;;;28.67;;
55076;SDS011;40971;44.702;11.030;2022-10-20T16:04:18;66.20;;;27.85;;
55076;SDS011;40971;44.702;11.030;2022-10-20T16:06:47;98.88;;;28.90;;
55076;SDS011;40971;44.702;11.030;2022-10-20T16:09:15;98.50;;;30.25;;
55076;SDS011;40971;44.702;11.030;2022-10-20T16:11:41;74.05;;;29.52;;
55076;SDS011;40971;44.702;11.030;2022-10-20T16:14:07;66.25;;;31.42;;
55076;SDS011;40971;44.702;11.030;2022-10-20T16:16:32;80.93;;;32.90;;
55076;SDS011;40971;44.702;11.030;2022-10-20T16:18:58;80.65;;;33.97;;
55076;SDS011;40971;44.702;11.030;2022-10-20T16:21:23;88.20;;;33.95;;
55076;SDS011;40971;44.702;11.030;2022-10-20T16:23:48;86.72;;;35.58;;
55076;SDS011;40971;44.702;11.030;2022-10-20T16:26:14;77.45;;;34.83;;
55076;SDS011;40971;44.702;11.030;2022-10-20T16:28:39;97.97;;;35.05;;
55076;SDS011;40971;44.702;11.030;2022-10-20T16:31:07;85.00;;;34.45;;
55076;SDS011;40971;44.702;11.030;2022-10-20T16:33:38;127.45;;;36.28;;
55076;SDS011;40971;44.702;11.030;2022-10-20T16:36:04;108.57;;;33.67;;
55076;SDS011;40971;44.702;11.030;2022-10-20T16:38:32;99.85;;;35.35;;
55076;SDS011;40971;44.702;11.030;2022-10-20T16:41:05;87.60;;;36.53;;
55076;SDS011;40971;44.702;11.030;2022-10-20T16:43:39;101.20;;;35.78;;
55076;SDS011;40971;44.702;11.030;2022-10-20T16:46:07;92.47;;;36.50;;
55076;SDS011;40971;44.702;11.030;2022-10-20T16:48:33;81.47;;;34.90;;
55076;SDS011;40971;44.702;11.030;2022-10-20T16:50:59;101.60;;;36.50;;
55076;SDS011;40971;44.702;11.030;2022-10-20T16:53:29;94.43;;;35.80;;
55076;SDS011;40971;44.702;11.030;2022-10-20T16:55:55;69.55;;;33.28;;
55076;SDS011;40971;44.702;11.030;2022-10-20T16:58:21;69.63;;;34.28;;
55076;SDS011;40971;44.702;11.030;2022-10-20T17:01:06;73.68;;;34.70;;
55076;SDS011;40971;44.702;11.030;2022-10-20T17:03:35;69.97;;;31.33;;
55076;SDS011;40971;44.702;11.030;2022-10-20T17:06:01;75.20;;;34.60;;
55076;SDS011;40971;44.702;11.030;2022-10-20T17:08:29;69.40;;;32.80;;
55076;SDS011;40971;44.702;11.030;2022-10-20T17:10:59;58.70;;;31.70;;
55076;SDS011;40971;44.702;11.030;2022-10-20T17:13:31;78.53;;;36.67;;
55076;SDS011;40971;44.702;11.030;2022-10-20T17:16:04;74.10;;;36.05;;
55076;SDS011;40971;44.702;11.030;2022-10-20T17:18:32;67.00;;;33.00;;
55076;SDS011;40971;44.702;11.030;2022-10-20T17:20:58;75.07;;;35.97;;
55076;SDS011;40971;44.702;11.030;2022-10-20T17:23:24;80.15;;;33.40;;
55076;SDS011;40971;44.702;11.030;2022-10-20T17:25:50;70.32;;;30.70;;
55076;SDS011;40971;44.702;11.030;2022-10-20T17:28:16;74.10;;;31.08;;